Time,TemperatureF,DewpointF,PressureIn,WindDirection,WindDirectionDegrees,WindSpeedMPH,WindSpeedGustMPH,Humidity,HourlyPrecipIn,Conditions,Clouds,dailyrainin,SoftwareType,DateUTC
2013-06-23 00:01:00,62.0,61.0,-100.00,North,10,3.0,7.0,96,-99.99,,,-99.99,,2013-06-23 05:01:00,
2013-06-23 00:11:00,62.0,61.0,-100.00,North,10,3.0,7.0,96,-99.99,,,-99.99,,2013-06-23 05:11:00,
2013-06-23 00:42:00,60.0,59.0,-100.00,ENE,65,6.0,12.0,98,-99.99,,,-99.99,,2013-06-23 05:42:00,
2013-06-23 00:52:00,60.0,59.0,-100.00,ENE,65,6.0,12.0,98,-99.99,,,-99.99,,2013-06-23 05:52:00,
2013-06-23 01:02:00,60.0,59.0,-100.00,ENE,65,6.0,12.0,98,-99.99,,,-99.99,,2013-06-23 06:02:00,
2013-06-23 01:12:00,60.0,59.0,-100.00,ENE,65,6.0,12.0,98,-99.99,,,-99.99,,2013-06-23 06:12:00,
2013-06-23 01:43:00,59.0,58.0,-100.00,NE,55,5.0,10.0,98,-99.99,,,-99.99,,2013-06-23 06:43:00,
2013-06-23 01:52:00,59.0,58.0,-100.00,NE,55,5.0,10.0,98,-99.99,,,-99.99,,2013-06-23 06:52:00,
2013-06-23 02:02:00,59.0,58.0,-100.00,NE,55,5.0,10.0,98,-99.99,,,-99.99,,2013-06-23 07:02:00,
2013-06-23 02:12:00,59.0,58.0,-100.00,NE,55,5.0,10.0,98,-99.99,,,-99.99,,2013-06-23 07:12:00,
2013-06-23 02:43:00,59.0,58.0,-100.00,NNE,30,1.0,4.0,98,-99.99,,,-99.99,,2013-06-23 07:43:00,
2013-06-23 02:53:00,59.0,58.0,-100.00,NNE,30,1.0,4.0,98,-99.99,,,-99.99,,2013-06-23 07:53:00,
2013-06-23 03:02:00,59.0,58.0,-100.00,NNE,30,1.0,4.0,98,-99.99,,,-99.99,,2013-06-23 08:02:00,
2013-06-23 03:12:00,59.0,58.0,-100.00,NNE,30,1.0,4.0,98,-99.99,,,-99.99,,2013-06-23 08:12:00,
2013-06-23 04:43:00,60.0,60.0,-100.00,ENE,60,4.0,6.0,98,-99.99,,,-99.99,,2013-06-23 09:43:00,
2013-06-23 04:54:00,60.0,60.0,-100.00,ENE,60,4.0,6.0,98,-99.99,,,-99.99,,2013-06-23 09:54:00,
2013-06-23 05:02:00,60.0,60.0,-100.00,ENE,60,4.0,6.0,98,-99.99,,,-99.99,,2013-06-23 10:02:00,
2013-06-23 05:11:00,60.0,60.0,-100.00,ENE,60,4.0,6.0,98,-99.99,,,-99.99,,2013-06-23 10:11:00,
2013-06-23 05:43:00,62.0,61.0,-100.00,East,100,2.0,3.0,98,-99.99,,,-99.99,,2013-06-23 10:43:00,
2013-06-23 05:53:00,62.0,61.0,-100.00,East,100,2.0,3.0,98,-99.99,,,-99.99,,2013-06-23 10:53:00,
2013-06-23 06:01:00,62.0,61.0,-100.00,East,100,2.0,3.0,98,-99.99,,,-99.99,,2013-06-23 11:01:00,
2013-06-23 06:11:00,62.0,61.0,-100.00,East,100,2.0,3.0,98,-99.99,,,-99.99,,2013-06-23 11:11:00,
2013-06-23 07:43:00,68.0,67.0,-100.00,SE,145,5.0,11.0,98,-99.99,,,-99.99,,2013-06-23 12:43:00,
2013-06-23 07:53:00,68.0,67.0,-100.00,SE,145,5.0,11.0,98,-99.99,,,-99.99,,2013-06-23 12:53:00,
2013-06-23 08:02:00,68.0,67.0,-100.00,SE,145,5.0,11.0,98,-99.99,,,-99.99,,2013-06-23 13:02:00,
2013-06-23 08:11:00,68.0,67.0,-100.00,SE,145,5.0,11.0,98,-99.99,,,-99.99,,2013-06-23 13:11:00,
2013-06-23 08:43:00,68.0,67.0,-100.00,ESE,115,2.0,10.0,98,-99.99,,,-99.99,,2013-06-23 13:43:00,
2013-06-23 08:54:00,68.0,67.0,-100.00,ESE,115,2.0,10.0,98,-99.99,,,-99.99,,2013-06-23 13:54:00,
2013-06-23 09:04:00,68.0,67.0,-100.00,ESE,115,2.0,10.0,98,-99.99,,,-99.99,,2013-06-23 14:04:00,
2013-06-23 09:11:00,68.0,67.0,-100.00,ESE,115,2.0,10.0,98,-99.99,,,-99.99,,2013-06-23 14:11:00,
2013-06-23 09:44:00,69.0,68.0,-100.00,SE,140,6.0,17.0,98,-99.99,,,-99.99,,2013-06-23 14:44:00,
2013-06-23 09:52:00,69.0,68.0,-100.00,SE,140,6.0,17.0,98,-99.99,,,-99.99,,2013-06-23 14:52:00,
2013-06-23 10:05:00,69.0,68.0,-100.00,SE,140,6.0,17.0,98,-99.99,,,-99.99,,2013-06-23 15:05:00,
2013-06-23 10:11:00,69.0,68.0,-100.00,SE,140,6.0,17.0,98,-99.99,,,-99.99,,2013-06-23 15:11:00,
2013-06-23 10:43:00,73.0,67.0,-100.00,South,175,8.0,19.0,83,-99.99,,,-99.99,,2013-06-23 15:43:00,
2013-06-23 10:53:00,73.0,67.0,-100.00,South,175,8.0,19.0,83,-99.99,,,-99.99,,2013-06-23 15:53:00,
2013-06-23 11:06:00,73.0,67.0,-100.00,South,175,8.0,19.0,83,-99.99,,,-99.99,,2013-06-23 16:06:00,
2013-06-23 11:12:00,73.0,67.0,-100.00,South,175,8.0,19.0,83,-99.99,,,-99.99,,2013-06-23 16:12:00,
2013-06-23 11:43:00,73.0,67.0,-100.00,South,185,6.0,18.0,81,-99.99,,,-99.99,,2013-06-23 16:43:00,
2013-06-23 11:53:00,73.0,67.0,-100.00,South,185,6.0,18.0,81,-99.99,,,-99.99,,2013-06-23 16:53:00,
2013-06-23 12:05:00,73.0,67.0,-100.00,South,185,6.0,18.0,81,-99.99,,,-99.99,,2013-06-23 17:05:00,
2013-06-23 12:12:00,73.0,67.0,-100.00,South,185,6.0,18.0,81,-99.99,,,-99.99,,2013-06-23 17:12:00,
2013-06-23 12:43:00,78.0,65.0,-100.00,SSW,195,9.0,23.0,66,-99.99,,,-99.99,,2013-06-23 17:43:00,
2013-06-23 12:53:00,78.0,65.0,-100.00,SSW,195,9.0,23.0,66,-99.99,,,-99.99,,2013-06-23 17:53:00,
2013-06-23 13:01:00,78.0,65.0,-100.00,SSW,195,9.0,23.0,66,-99.99,,,-99.99,,2013-06-23 18:01:00,
2013-06-23 13:12:00,78.0,65.0,-100.00,SSW,195,9.0,23.0,66,-99.99,,,-99.99,,2013-06-23 18:12:00,
2013-06-23 13:43:00,77.0,61.0,-100.00,SSW,205,10.0,27.0,58,-99.99,,,-99.99,,2013-06-23 18:43:00,
2013-06-23 13:53:00,77.0,61.0,-100.00,SSW,205,10.0,27.0,58,-99.99,,,-99.99,,2013-06-23 18:53:00,
2013-06-23 14:01:00,77.0,61.0,-100.00,SSW,205,10.0,27.0,58,-99.99,,,-99.99,,2013-06-23 19:01:00,
2013-06-23 14:11:00,77.0,61.0,-100.00,SSW,205,10.0,27.0,58,-99.99,,,-99.99,,2013-06-23 19:11:00,
2013-06-23 14:43:00,81.0,60.0,-100.00,SW,220,9.0,16.0,50,-99.99,,,-99.99,,2013-06-23 19:43:00,
2013-06-23 14:53:00,81.0,60.0,-100.00,SW,220,9.0,16.0,50,-99.99,,,-99.99,,2013-06-23 19:53:00,
2013-06-23 15:02:00,81.0,60.0,-100.00,SW,220,9.0,16.0,50,-99.99,,,-99.99,,2013-06-23 20:02:00,
2013-06-23 15:12:00,81.0,60.0,-100.00,SW,220,9.0,16.0,50,-99.99,,,-99.99,,2013-06-23 20:12:00,
2013-06-23 15:42:00,81.0,60.0,-100.00,SW,225,11.0,21.0,48,-99.99,,,-99.99,,2013-06-23 20:42:00,
2013-06-23 15:53:00,81.0,60.0,-100.00,SW,225,11.0,21.0,48,-99.99,,,-99.99,,2013-06-23 20:53:00,
2013-06-23 16:01:00,81.0,60.0,-100.00,SW,225,11.0,21.0,48,-99.99,,,-99.99,,2013-06-23 21:01:00,
2013-06-23 16:11:00,81.0,60.0,-100.00,SW,225,11.0,21.0,48,-99.99,,,-99.99,,2013-06-23 21:11:00,
2013-06-23 16:44:00,81.0,58.0,-100.00,SW,230,12.0,26.0,45,-99.99,,,-99.99,,2013-06-23 21:44:00,
2013-06-23 16:52:00,81.0,58.0,-100.00,SW,230,12.0,26.0,45,-99.99,,,-99.99,,2013-06-23 21:52:00,
2013-06-23 17:01:00,81.0,58.0,-100.00,SW,230,12.0,26.0,45,-99.99,,,-99.99,,2013-06-23 22:01:00,
2013-06-23 17:11:00,81.0,58.0,-100.00,SW,230,12.0,26.0,45,-99.99,,,-99.99,,2013-06-23 22:11:00,
2013-06-23 17:43:00,83.0,57.0,-100.00,SW,230,11.0,21.0,42,-99.99,,,-99.99,,2013-06-23 22:43:00,
2013-06-23 17:53:00,83.0,57.0,-100.00,SW,230,11.0,21.0,42,-99.99,,,-99.99,,2013-06-23 22:53:00,
2013-06-23 18:01:00,83.0,57.0,-100.00,SW,230,11.0,21.0,42,-99.99,,,-99.99,,2013-06-23 23:01:00,
2013-06-23 18:11:00,83.0,57.0,-100.00,SW,230,11.0,21.0,42,-99.99,,,-99.99,,2013-06-23 23:11:00,
2013-06-23 20:42:00,78.0,56.0,-100.00,SW,230,0.0,0.0,46,-99.99,,,-99.99,,2013-06-24 01:42:00,
2013-06-23 20:53:00,78.0,56.0,-100.00,SW,230,0.0,0.0,46,-99.99,,,-99.99,,2013-06-24 01:53:00,
2013-06-23 21:02:00,78.0,56.0,-100.00,SW,230,0.0,0.0,46,-99.99,,,-99.99,,2013-06-24 02:02:00,
2013-06-23 21:11:00,78.0,56.0,-100.00,SW,230,0.0,0.0,46,-99.99,,,-99.99,,2013-06-24 02:11:00,
2013-06-23 21:42:00,72.0,60.0,-100.00,South,175,0.0,0.0,66,-99.99,,,-99.99,,2013-06-24 02:42:00,
2013-06-23 21:53:00,72.0,60.0,-100.00,South,175,0.0,0.0,66,-99.99,,,-99.99,,2013-06-24 02:53:00,
2013-06-23 22:01:00,72.0,60.0,-100.00,South,175,0.0,0.0,66,-99.99,,,-99.99,,2013-06-24 03:01:00,
2013-06-23 22:11:00,72.0,60.0,-100.00,South,175,0.0,0.0,66,-99.99,,,-99.99,,2013-06-24 03:11:00,
2013-06-23 22:43:00,67.0,63.0,-100.00,South,185,0.0,0.0,89,-99.99,,,-99.99,,2013-06-24 03:43:00,
2013-06-23 22:53:00,67.0,63.0,-100.00,South,185,0.0,0.0,89,-99.99,,,-99.99,,2013-06-24 03:53:00,
2013-06-23 23:02:00,67.0,63.0,-100.00,South,185,0.0,0.0,89,-99.99,,,-99.99,,2013-06-24 04:02:00,
2013-06-23 23:12:00,67.0,63.0,-100.00,South,185,0.0,0.0,89,-99.99,,,-99.99,,2013-06-24 04:12:00,
2013-06-23 23:43:00,66.0,64.0,-100.00,South,175,0.0,0.0,94,-99.99,,,-99.99,,2013-06-24 04:43:00,
2013-06-23 23:53:00,66.0,64.0,-100.00,South,175,0.0,0.0,94,-99.99,,,-99.99,,2013-06-24 04:53:00,